createdAt,value
2023-02-22T00:02:10.432Z,9.43
2023-02-22T00:04:39.454Z,9.38
2023-02-22T00:07:07.147Z,9.35
2023-02-22T00:09:34.080Z,9.33
2023-02-22T00:12:01.216Z,9.30
2023-02-22T00:14:28.506Z,9.28
2023-02-22T00:16:59.508Z,9.24
2023-02-22T00:19:27.993Z,9.18
2023-02-22T00:21:55.053Z,9.15
2023-02-22T00:24:24.708Z,9.11
2023-02-22T00:26:57.089Z,9.04
2023-02-22T00:29:25.308Z,8.99
2023-02-22T00:31:52.323Z,8.95
2023-02-22T00:34:19.156Z,8.88
2023-02-22T00:36:50.522Z,8.82
2023-02-22T00:39:18.085Z,8.77
2023-02-22T00:41:45.167Z,8.70
2023-02-22T00:44:12.147Z,8.66
2023-02-22T00:46:39.644Z,8.64
2023-02-22T00:49:07.093Z,8.62
2023-02-22T00:51:34.061Z,8.62
2023-02-22T00:54:01.413Z,8.61
2023-02-22T00:56:28.603Z,8.60
2023-02-22T00:58:55.495Z,8.60
2023-02-22T01:01:23.920Z,8.59
2023-02-22T01:03:50.787Z,8.56
2023-02-22T01:06:17.592Z,8.55
2023-02-22T01:08:46.542Z,8.52
2023-02-22T01:11:16.192Z,8.52
2023-02-22T01:13:45.204Z,8.48
2023-02-22T01:16:12.227Z,8.55
2023-02-22T01:18:39.089Z,8.55
2023-02-22T01:21:06.790Z,8.56
2023-02-22T01:23:35.395Z,8.57
2023-02-22T01:26:05.543Z,8.57
2023-02-22T01:28:33.497Z,8.57
2023-02-22T01:31:02.921Z,8.56
2023-02-22T01:33:30.125Z,8.55
2023-02-22T01:35:57.351Z,8.56
2023-02-22T01:38:24.196Z,8.55
2023-02-22T01:40:51.774Z,8.55
2023-02-22T01:43:31.730Z,8.51
2023-02-22T01:46:04.435Z,8.46
2023-02-22T01:48:44.427Z,8.48
2023-02-22T01:51:32.415Z,8.43
2023-02-22T01:54:36.900Z,8.42
2023-02-22T01:57:24.692Z,8.36
2023-02-22T01:59:57.594Z,8.36
2023-02-22T02:02:25.949Z,8.36
2023-02-22T02:04:56.334Z,8.34
2023-02-22T02:07:24.717Z,8.33
2023-02-22T02:09:59.753Z,8.27
2023-02-22T02:12:29.776Z,8.30
2023-02-22T02:15:31.842Z,8.25
2023-02-22T02:18:04.119Z,8.28
2023-02-22T02:20:48.945Z,8.27
2023-02-22T02:24:13.511Z,8.24
2023-02-22T02:26:55.559Z,8.27
2023-02-22T02:30:11.514Z,8.22
2023-02-22T02:32:48.444Z,8.25
2023-02-22T02:35:30.532Z,8.24
2023-02-22T02:38:23.707Z,8.22
2023-02-22T02:41:21.619Z,8.21
2023-02-22T02:44:12.784Z,8.21
2023-02-22T02:46:59.822Z,8.22
2023-02-22T02:49:49.978Z,8.22
2023-02-22T02:52:19.236Z,8.23
2023-02-22T02:54:49.121Z,8.25
2023-02-22T02:57:15.991Z,8.26
2023-02-22T02:59:42.923Z,8.28
2023-02-22T03:02:45.869Z,8.23
2023-02-22T03:05:43.751Z,8.21
2023-02-22T03:08:18.035Z,8.25
2023-02-22T03:11:15.812Z,8.23
2023-02-22T03:14:07.036Z,8.20
2023-02-22T03:17:23.554Z,8.20
2023-02-22T03:20:04.617Z,8.22
2023-02-22T03:22:54.377Z,8.23
2023-02-22T03:25:29.952Z,8.25
2023-02-22T03:28:04.699Z,8.26
2023-02-22T03:30:47.005Z,8.25
2023-02-22T03:33:20.873Z,8.27
2023-02-22T03:36:01.054Z,8.28
2023-02-22T03:38:32.607Z,8.29
2023-02-22T03:41:02.447Z,8.30
2023-02-22T03:43:48.438Z,8.28
2023-02-22T03:46:19.265Z,8.30
2023-02-22T03:48:57.184Z,8.28
2023-02-22T03:51:24.823Z,8.30
2023-02-22T03:53:57.534Z,8.31
2023-02-22T03:56:36.322Z,8.29
2023-02-22T03:59:07.596Z,8.28
2023-02-22T04:01:35.699Z,8.29
2023-02-22T04:04:03.685Z,8.30
2023-02-22T04:06:31.190Z,8.31
2023-02-22T04:08:59.615Z,8.32
2023-02-22T04:11:27.149Z,8.31
2023-02-22T04:13:54.789Z,8.31
2023-02-22T04:16:21.835Z,8.31
2023-02-22T04:18:50.192Z,8.31
2023-02-22T04:21:19.112Z,8.30
2023-02-22T04:23:48.817Z,8.29
2023-02-22T04:26:15.739Z,8.30
2023-02-22T04:28:45.663Z,8.31
2023-02-22T04:31:18.821Z,8.32
2023-02-22T04:33:46.167Z,8.33
2023-02-22T04:36:16.406Z,8.34
2023-02-22T04:38:44.833Z,8.35
2023-02-22T04:41:12.384Z,8.35
2023-02-22T04:43:40.018Z,8.36
2023-02-22T04:46:19.806Z,8.34
2023-02-22T04:48:46.622Z,8.34
2023-02-22T04:51:16.110Z,8.34
2023-02-22T04:53:56.200Z,8.32
2023-02-22T04:56:23.824Z,8.30
2023-02-22T04:58:50.638Z,8.27
2023-02-22T05:01:17.744Z,8.25
2023-02-22T05:03:46.729Z,8.22
2023-02-22T05:06:13.542Z,8.21
2023-02-22T05:08:40.406Z,8.19
2023-02-22T05:11:07.247Z,8.18
2023-02-22T05:13:34.092Z,8.15
2023-02-22T05:16:00.978Z,8.15
2023-02-22T05:18:27.889Z,8.12
2023-02-22T05:20:54.678Z,8.09
2023-02-22T05:23:21.501Z,8.07
2023-02-22T05:25:48.315Z,8.05
2023-02-22T05:28:15.912Z,8.02
2023-02-22T05:30:43.026Z,8.02
2023-02-22T05:33:10.515Z,8.00
2023-02-22T05:35:37.342Z,7.99
2023-02-22T05:38:05.179Z,8.00
2023-02-22T05:40:32.678Z,8.00
2023-02-22T05:43:00.697Z,8.01
2023-02-22T05:45:28.841Z,8.02
2023-02-22T05:47:56.471Z,8.02
2023-02-22T05:50:24.498Z,8.03
2023-02-22T05:52:52.393Z,8.03
2023-02-22T05:55:23.490Z,8.01
2023-02-22T05:57:51.948Z,8.00
2023-02-22T06:00:25.427Z,8.00
2023-02-22T06:02:59.186Z,8.00
2023-02-22T06:05:27.153Z,8.02
2023-02-22T06:07:55.103Z,8.04
2023-02-22T06:10:22.600Z,8.06
2023-02-22T06:12:50.432Z,8.08
2023-02-22T06:15:19.284Z,8.10
2023-02-22T06:17:46.820Z,8.12
2023-02-22T06:20:16.827Z,8.13
2023-02-22T06:22:44.667Z,8.15
2023-02-22T06:25:16.259Z,8.13
2023-02-22T06:27:43.295Z,8.13
2023-02-22T06:30:13.681Z,8.08
2023-02-22T06:32:40.571Z,8.08
2023-02-22T06:35:07.801Z,8.05
2023-02-22T06:37:34.885Z,8.05
2023-02-22T06:40:05.579Z,8.03
2023-02-22T06:42:33.035Z,8.01
2023-02-22T06:44:59.847Z,8.01
2023-02-22T06:47:26.767Z,8.03
2023-02-22T06:49:58.043Z,8.05
2023-02-22T06:52:25.305Z,8.09
2023-02-22T06:54:52.574Z,8.13
2023-02-22T06:57:19.398Z,8.17
2023-02-22T06:59:46.403Z,8.22
2023-02-22T07:02:14.173Z,8.26
2023-02-22T07:04:43.455Z,8.29
2023-02-22T07:07:10.743Z,8.31
2023-02-22T07:09:37.605Z,8.32
2023-02-22T07:12:04.593Z,8.34
2023-02-22T07:14:31.409Z,8.35
2023-02-22T07:16:58.195Z,8.38
2023-02-22T07:19:25.085Z,8.42
2023-02-22T07:21:58.945Z,8.47
2023-02-22T07:24:28.384Z,8.53
2023-02-22T07:26:55.648Z,8.60
2023-02-22T07:29:22.603Z,8.66
2023-02-22T07:31:49.745Z,8.72
2023-02-22T07:34:16.575Z,8.79
2023-02-22T07:36:43.561Z,8.86
2023-02-22T07:39:11.042Z,8.91
2023-02-22T07:41:38.004Z,8.96
2023-02-22T07:44:14.461Z,9.03
2023-02-22T07:46:41.283Z,9.09
2023-02-22T07:49:08.066Z,9.13
2023-02-22T07:51:34.888Z,9.17
2023-02-22T07:54:01.727Z,9.23
2023-02-22T07:56:28.542Z,9.29
2023-02-22T07:58:55.415Z,9.36
2023-02-22T08:01:22.203Z,9.43
2023-02-22T08:03:49.017Z,9.51
2023-02-22T08:06:16.166Z,9.58
2023-02-22T08:08:43.057Z,9.67
2023-02-22T08:11:10.048Z,9.75
2023-02-22T08:13:38.780Z,9.83
2023-02-22T08:16:05.916Z,9.92
2023-02-22T08:18:32.722Z,9.99
2023-02-22T08:20:59.582Z,10.07
2023-02-22T08:23:26.988Z,10.17
2023-02-22T08:25:54.192Z,10.27
2023-02-22T08:28:24.282Z,10.37
2023-02-22T08:30:52.853Z,10.48
2023-02-22T08:33:20.374Z,10.59
2023-02-22T08:35:49.540Z,10.71
2023-02-22T08:38:29.828Z,10.80
2023-02-22T08:40:57.242Z,10.95
2023-02-22T08:43:24.496Z,11.07
2023-02-22T08:45:52.151Z,11.19
2023-02-22T08:48:20.129Z,11.31
2023-02-22T08:50:47.181Z,11.43
2023-02-22T08:53:16.308Z,11.53
2023-02-22T08:55:43.781Z,11.65
2023-02-22T08:58:12.023Z,11.78
2023-02-22T09:00:40.350Z,11.90
2023-02-22T09:03:11.845Z,12.02
2023-02-22T09:05:38.703Z,12.16
2023-02-22T09:08:06.065Z,12.29
2023-02-22T09:10:34.469Z,12.41
2023-02-22T09:13:02.201Z,12.56
2023-02-22T09:15:30.156Z,12.71
2023-02-22T09:17:57.349Z,12.84
2023-02-22T09:20:28.308Z,12.96
2023-02-22T09:22:56.118Z,13.12
2023-02-22T09:25:23.471Z,13.28
2023-02-22T09:27:52.760Z,13.42
2023-02-22T09:30:33.151Z,13.55
2023-02-22T09:33:07.086Z,13.71
2023-02-22T09:35:35.908Z,13.87
2023-02-22T09:38:08.404Z,14.01
2023-02-22T09:40:44.580Z,14.14
2023-02-22T09:43:37.764Z,14.26
2023-02-22T09:46:28.216Z,14.42
2023-02-22T09:49:52.860Z,14.58
2023-02-22T09:52:32.540Z,14.78
2023-02-22T09:55:28.754Z,14.91
2023-02-22T09:57:58.491Z,15.10
2023-02-22T10:00:33.733Z,15.25
2023-02-22T10:03:24.722Z,15.41
2023-02-22T10:06:11.049Z,15.59
2023-02-22T10:08:39.153Z,15.81
2023-02-22T10:11:40.356Z,15.98
2023-02-22T10:14:33.298Z,16.17
2023-02-22T10:17:35.435Z,16.38
2023-02-22T10:20:14.564Z,16.59
2023-02-22T10:23:00.717Z,16.76
2023-02-22T10:25:34.841Z,16.94
2023-02-22T10:28:18.736Z,17.04
2023-02-22T10:31:04.378Z,17.17
2023-02-22T10:33:47.527Z,17.26
2023-02-22T10:36:21.290Z,17.35
2023-02-22T10:39:13.358Z,17.38
2023-02-22T10:41:49.650Z,17.48
2023-02-22T10:44:16.918Z,17.61
2023-02-22T10:46:45.783Z,17.69
2023-02-22T10:49:20.329Z,17.75
2023-02-22T10:52:01.289Z,17.83
2023-02-22T10:54:41.741Z,17.96
2023-02-22T10:57:12.125Z,18.08
2023-02-22T10:59:41.902Z,18.19
2023-02-22T11:02:30.882Z,18.24
2023-02-22T11:05:00.416Z,18.39
2023-02-22T11:07:31.638Z,18.51
2023-02-22T11:10:04.841Z,18.67
2023-02-22T11:12:43.561Z,18.79
2023-02-22T11:15:29.639Z,18.93
2023-02-22T11:17:59.773Z,19.12
2023-02-22T11:20:34.352Z,19.25
2023-02-22T11:23:03.716Z,19.38
2023-02-22T11:25:37.501Z,19.52
2023-02-22T11:28:30.791Z,19.64
2023-02-22T11:31:10.578Z,19.73
2023-02-22T11:33:38.704Z,19.88
2023-02-22T11:36:09.239Z,19.99
2023-02-22T11:38:39.385Z,20.08
2023-02-22T11:41:06.228Z,20.21
2023-02-22T11:43:33.070Z,20.29
2023-02-22T11:46:20.437Z,20.32
2023-02-22T11:49:17.281Z,20.42
2023-02-22T11:52:06.490Z,20.52
2023-02-22T11:54:53.078Z,20.59
2023-02-22T11:58:01.393Z,20.65
2023-02-22T12:00:55.241Z,20.71
2023-02-22T12:03:58.480Z,20.77
2023-02-22T12:06:42.636Z,20.84
2023-02-22T12:09:36.726Z,20.92
2023-02-22T12:12:31.712Z,21.00
2023-02-22T12:15:18.261Z,21.11
2023-02-22T12:18:22.064Z,21.21
2023-02-22T12:21:00.177Z,21.32
2023-02-22T12:23:46.022Z,21.38
2023-02-22T12:26:41.681Z,21.43
2023-02-22T12:29:26.925Z,21.51
2023-02-22T12:32:28.833Z,21.55
2023-02-22T12:35:05.358Z,21.67
2023-02-22T12:37:56.724Z,21.72
2023-02-22T12:40:40.171Z,21.85
2023-02-22T12:43:30.089Z,21.96
2023-02-22T12:46:20.557Z,22.04
2023-02-22T12:49:13.792Z,22.29
2023-02-22T12:52:15.924Z,22.42
2023-02-22T12:55:47.194Z,22.64
2023-02-22T12:58:45.340Z,22.82
2023-02-22T13:01:21.344Z,22.98
2023-02-22T13:03:49.135Z,23.10
2023-02-22T13:06:57.393Z,23.05
2023-02-22T13:09:45.024Z,23.07
2023-02-22T13:12:22.970Z,23.09
2023-02-22T13:15:53.755Z,23.01
2023-02-22T13:18:44.322Z,23.04
2023-02-22T13:21:17.834Z,23.09
2023-02-22T13:24:22.965Z,23.02
2023-02-22T13:27:01.944Z,22.96
2023-02-22T13:29:38.616Z,22.83
2023-02-22T13:32:33.621Z,22.70
2023-02-22T13:35:49.236Z,22.52
2023-02-22T13:38:51.741Z,22.35
2023-02-22T13:41:43.886Z,22.22
2023-02-22T13:45:05.217Z,22.03
2023-02-22T13:47:47.240Z,21.92
2023-02-22T13:50:50.181Z,21.77
2023-02-22T13:53:27.829Z,21.69
2023-02-22T13:55:59.041Z,21.65
2023-02-22T13:58:26.430Z,21.74
2023-02-22T14:00:57.429Z,21.79
2023-02-22T14:03:36.562Z,21.81
2023-02-22T14:06:06.886Z,21.86
2023-02-22T14:08:37.495Z,21.86
2023-02-22T14:11:14.538Z,21.73
2023-02-22T14:14:14.491Z,21.62
2023-02-22T14:16:41.441Z,21.61
2023-02-22T14:19:22.891Z,21.47
2023-02-22T14:22:02.249Z,21.37
2023-02-22T14:24:50.986Z,21.28
2023-02-22T14:27:18.056Z,21.26
2023-02-22T14:29:57.877Z,21.12
2023-02-22T14:32:35.175Z,21.03
2023-02-22T14:35:26.447Z,20.98
2023-02-22T14:37:59.068Z,20.94
2023-02-22T14:40:30.946Z,20.90
2023-02-22T14:43:06.135Z,20.83
2023-02-22T14:45:45.836Z,20.75
2023-02-22T14:48:40.417Z,20.68
2023-02-22T14:51:23.216Z,20.66
2023-02-22T14:54:26.876Z,20.58
2023-02-22T14:57:24.307Z,20.53
2023-02-22T15:00:19.696Z,20.52
2023-02-22T15:02:49.529Z,20.53
2023-02-22T15:05:22.179Z,20.51
2023-02-22T15:07:59.530Z,20.55
2023-02-22T15:10:42.599Z,20.63
2023-02-22T15:13:26.350Z,20.70
2023-02-22T15:16:07.820Z,20.71
2023-02-22T15:18:42.205Z,20.70
2023-02-22T15:21:20.689Z,20.64
2023-02-22T15:24:07.848Z,20.57
2023-02-22T15:26:42.442Z,20.54
2023-02-22T15:29:23.096Z,20.48
2023-02-22T15:31:51.598Z,20.46
2023-02-22T15:34:28.587Z,20.36
2023-02-22T15:37:06.522Z,20.30
2023-02-22T15:39:43.608Z,20.21
2023-02-22T15:42:20.913Z,20.07
2023-02-22T15:44:52.223Z,19.94
2023-02-22T15:47:28.008Z,19.78
2023-02-22T15:50:34.516Z,19.58
2023-02-22T15:53:08.495Z,19.52
2023-02-22T15:55:47.088Z,19.41
2023-02-22T15:58:25.246Z,19.29
2023-02-22T16:01:03.103Z,19.18
2023-02-22T16:03:45.718Z,19.07
2023-02-22T16:06:25.010Z,19.01
2023-02-22T16:08:55.541Z,18.91
2023-02-22T16:11:43.181Z,18.75
2023-02-22T16:14:34.143Z,18.60
2023-02-22T16:17:28.727Z,18.45
2023-02-22T16:19:59.929Z,18.37
2023-02-22T16:22:36.288Z,18.20
2023-02-22T16:25:18.188Z,18.08
2023-02-22T16:27:53.881Z,17.99
2023-02-22T16:30:33.725Z,17.88
2023-02-22T16:33:05.486Z,17.74
2023-02-22T16:35:35.299Z,17.79
2023-02-22T16:38:06.220Z,17.72
2023-02-22T16:40:50.261Z,17.62
2023-02-22T16:43:29.314Z,17.57
2023-02-22T16:45:56.083Z,17.51
2023-02-22T16:48:30.033Z,17.43
2023-02-22T16:51:02.686Z,17.38
2023-02-22T16:53:32.869Z,17.32
2023-02-22T16:56:06.035Z,17.23
2023-02-22T16:58:36.956Z,17.17
2023-02-22T17:01:03.933Z,17.08
2023-02-22T17:03:30.759Z,17.00
2023-02-22T17:05:57.685Z,16.88
2023-02-22T17:08:24.573Z,16.80
2023-02-22T17:10:56.605Z,16.70
2023-02-22T17:13:27.242Z,16.59
2023-02-22T17:15:55.521Z,16.51
2023-02-22T17:18:25.929Z,16.43
2023-02-22T17:20:54.284Z,16.36
2023-02-22T17:23:22.888Z,16.31
2023-02-22T17:26:02.206Z,16.24
2023-02-22T17:28:29.381Z,16.22
2023-02-22T17:31:02.247Z,16.18
2023-02-22T17:33:33.112Z,16.13
2023-02-22T17:36:02.057Z,16.11
2023-02-22T17:38:30.247Z,16.08
2023-02-22T17:40:59.603Z,16.04
2023-02-22T17:43:30.116Z,16.00
2023-02-22T17:45:57.465Z,15.98
2023-02-22T17:48:24.866Z,15.95
2023-02-22T17:50:52.750Z,15.90
2023-02-22T17:53:24.444Z,15.87
2023-02-22T17:55:51.342Z,15.83
2023-02-22T17:58:18.346Z,15.80
2023-02-22T18:00:48.950Z,15.76
2023-02-22T18:03:25.320Z,15.71
2023-02-22T18:05:57.363Z,15.68
2023-02-22T18:08:27.036Z,15.64
2023-02-22T18:10:57.606Z,15.60
2023-02-22T18:13:27.039Z,15.55
2023-02-22T18:15:59.696Z,15.49
2023-02-22T18:18:27.001Z,15.46
2023-02-22T18:20:59.720Z,15.41
2023-02-22T18:23:30.803Z,15.36
2023-02-22T18:26:10.692Z,15.33
2023-02-22T18:28:39.448Z,15.29
2023-02-22T18:31:09.687Z,15.25
2023-02-22T18:33:36.843Z,15.24
2023-02-22T18:36:04.541Z,15.21
2023-02-22T18:38:31.603Z,15.19
2023-02-22T18:41:04.407Z,15.13
2023-02-22T18:43:34.010Z,15.10
2023-02-22T18:46:15.940Z,15.04
2023-02-22T18:48:43.170Z,15.06
2023-02-22T18:51:12.966Z,15.02
2023-02-22T18:53:46.630Z,14.99
2023-02-22T18:56:22.551Z,14.97
2023-02-22T18:58:54.321Z,14.95
2023-02-22T19:01:21.892Z,14.95
2023-02-22T19:03:48.799Z,14.94
2023-02-22T19:06:17.047Z,14.91
2023-02-22T19:08:46.102Z,14.89
2023-02-22T19:11:20.138Z,14.83
2023-02-22T19:13:50.227Z,14.79
2023-02-22T19:16:21.459Z,14.75
2023-02-22T19:18:52.232Z,14.71
2023-02-22T19:21:20.712Z,14.69
2023-02-22T19:23:48.663Z,14.66
2023-02-22T19:26:23.856Z,14.58
2023-02-22T19:28:53.492Z,14.55
2023-02-22T19:31:31.040Z,14.48
2023-02-22T19:34:11.033Z,14.43
2023-02-22T19:36:47.264Z,14.39
2023-02-22T19:39:19.132Z,14.32
2023-02-22T19:41:46.914Z,14.26
2023-02-22T19:44:13.965Z,14.18
2023-02-22T19:46:40.832Z,14.12
2023-02-22T19:49:07.927Z,14.07
2023-02-22T19:51:34.885Z,14.02
2023-02-22T19:54:07.330Z,13.94
2023-02-22T19:56:35.343Z,13.90
2023-02-22T19:59:09.364Z,13.82
2023-02-22T20:01:37.310Z,13.79
2023-02-22T20:04:08.324Z,13.73
2023-02-22T20:06:42.058Z,13.69
2023-02-22T20:09:13.256Z,13.68
2023-02-22T20:11:40.306Z,13.66
2023-02-22T20:14:07.092Z,13.65
2023-02-22T20:16:35.395Z,13.62
2023-02-22T20:19:02.308Z,13.61
2023-02-22T20:21:34.582Z,13.56
2023-02-22T20:24:05.164Z,13.54
2023-02-22T20:26:35.096Z,13.54
2023-02-22T20:29:03.984Z,13.53
2023-02-22T20:31:32.446Z,13.50
2023-02-22T20:34:00.945Z,13.51
2023-02-22T20:36:29.780Z,13.51
2023-02-22T20:39:00.289Z,13.52
2023-02-22T20:41:33.220Z,13.51
2023-02-22T20:44:02.257Z,13.52
2023-02-22T20:46:36.070Z,13.52
2023-02-22T20:49:07.329Z,13.50
2023-02-22T20:51:36.748Z,13.48
2023-02-22T20:54:03.810Z,13.46
2023-02-22T20:56:32.281Z,13.43
2023-02-22T20:59:02.184Z,13.40
2023-02-22T21:01:29.864Z,13.28
2023-02-22T21:04:01.941Z,13.28
2023-02-22T21:06:30.756Z,13.25
2023-02-22T21:09:00.141Z,13.22
2023-02-22T21:11:30.307Z,13.17
2023-02-22T21:13:57.709Z,13.15
2023-02-22T21:16:35.267Z,13.11
2023-02-22T21:19:05.645Z,13.11
2023-02-22T21:21:32.628Z,13.12
2023-02-22T21:24:03.216Z,13.13
2023-02-22T21:26:34.042Z,13.11
2023-02-22T21:29:05.003Z,13.12
2023-02-22T21:31:33.983Z,13.14
2023-02-22T21:34:01.989Z,13.15
2023-02-22T21:36:29.311Z,13.19
2023-02-22T21:38:59.819Z,13.19
2023-02-22T21:41:29.964Z,13.19
2023-02-22T21:43:58.765Z,13.23
2023-02-22T21:46:27.565Z,13.24
2023-02-22T21:48:58.588Z,13.24
2023-02-22T21:51:32.569Z,13.24
2023-02-22T21:54:04.288Z,13.23
2023-02-22T21:56:35.496Z,13.22
2023-02-22T21:59:11.519Z,13.23
2023-02-22T22:01:49.603Z,13.19
2023-02-22T22:04:23.236Z,13.22
2023-02-22T22:06:53.013Z,13.22
2023-02-22T22:09:22.936Z,13.21
2023-02-22T22:11:50.647Z,13.15
2023-02-22T22:14:19.352Z,13.20
2023-02-22T22:16:48.606Z,13.21
2023-02-22T22:19:15.526Z,13.20
2023-02-22T22:21:42.687Z,13.21
2023-02-22T22:24:11.059Z,13.19
2023-02-22T22:26:38.528Z,13.20
2023-02-22T22:29:05.907Z,13.19
2023-02-22T22:31:33.078Z,13.17
2023-02-22T22:33:59.940Z,13.13
2023-02-22T22:36:27.344Z,13.12
2023-02-22T22:38:57.374Z,13.11
2023-02-22T22:41:27.867Z,13.10
2023-02-22T22:43:55.079Z,13.10
2023-02-22T22:46:22.132Z,13.11
2023-02-22T22:48:48.999Z,13.11
2023-02-22T22:51:20.043Z,13.12
2023-02-22T22:53:49.215Z,13.14
2023-02-22T22:56:26.133Z,13.12
2023-02-22T22:58:56.722Z,13.14
2023-02-22T23:01:33.858Z,13.14
2023-02-22T23:04:04.292Z,13.16
2023-02-22T23:06:43.558Z,13.15
2023-02-22T23:09:21.653Z,13.13
2023-02-22T23:11:53.284Z,13.15
2023-02-22T23:14:24.387Z,13.16
2023-02-22T23:16:59.813Z,13.14
2023-02-22T23:19:27.696Z,13.18
2023-02-22T23:21:55.896Z,13.19
2023-02-22T23:24:26.757Z,13.21
2023-02-22T23:26:59.413Z,13.21
2023-02-22T23:29:26.705Z,13.25
2023-02-22T23:31:54.450Z,13.27
2023-02-22T23:34:23.141Z,13.27
2023-02-22T23:36:54.094Z,13.29
2023-02-22T23:39:23.176Z,13.30
2023-02-22T23:41:59.783Z,13.28
2023-02-22T23:44:28.091Z,13.32
2023-02-22T23:46:55.562Z,13.33
2023-02-22T23:49:26.290Z,13.31
2023-02-22T23:51:54.617Z,13.32
2023-02-22T23:54:24.226Z,13.31
2023-02-22T23:56:57.699Z,13.29
2023-02-22T23:59:26.632Z,13.29
